F.r. Bigelow — WDB8153 — position and weather

sailwx.info

Track history (hours):
 
Tides and Currents Weather Stations Pressure Air Temp Water Temp Dewpoint Dewpoint Depression Visibility Wind Speed Wind Dir Waves Ship Positions

F.r. Bigelow

Owner: INGRAM BARGE COMPANY, Nashville, TN. More information available from US FCC via Universal Licensing System and Coast Guard Vessel Documentation Center.

Last reported at 2015-Jul-04 12:21 UTC. Time now 2015-Jul-05 07:48 UTC.
Position N 29°55' W 090°12'.

Length 46 m; draft 2.7 m.

Type: Tow > 200 m length. MMSI: 366953890.

Date/timePositionNaut miles runAvg speedWind from/ knotsBaromVisibWave heightAir tempDewpointWater temp
2015-Jul-04 12:21N 29°55' W 090°12'3 3.3
2015-Jul-04 11:21N 29°57' W 090°08'3 3.2
2015-Jul-04 10:19N 29°55' W 090°05'2 2.2
2015-Jul-04 09:18N 29°57' W 090°03'0 0.0
2015-Jul-04 08:33N 29°57' W 090°03'0 0.0
2015-Jul-04 07:26N 29°57' W 090°03'0 0.0
2015-Jul-04 06:33N 29°57' W 090°03'0 0.0
2015-Jul-04 05:32N 29°57' W 090°03'0 0.0
2015-Jul-04 04:28N 29°57' W 090°03'0 0.0
2015-Jul-04 03:32N 29°57' W 090°03'1 1.1
2015-Jul-04 02:33N 29°57' W 090°03'4 3.5
2015-Jul-04 01:33N 29°56' W 089°59'4 1.9
2015-Jul-03 23:14N 29°51' W 089°59'4 5.0
2015-Jul-03 22:25N 29°48' W 090°00'9 0.3
2015-Jul-02 18:17N 29°56' W 090°03'0 0.1
2015-Jul-02 17:29N 29°56' W 090°03'0 0.2
2015-Jul-02 15:25N 29°57' W 090°03'0 0.0
2015-Jul-02 14:17N 29°57' W 090°03'0 0.3
2015-Jul-02 13:21N 29°57' W 090°03'2 2.1
2015-Jul-02 12:32N 29°57' W 090°01'3 2.8
2015-Jul-02 11:28N 29°56' W 089°58'3 1.7
2015-Jul-02 09:23N 29°52' W 089°57'3 0.1
2015-Jul-01 08:33N 29°55' W 089°55'7 6.9
2015-Jul-01 07:28N 29°57' W 090°03'19 3.1
2015-Jul-01 01:12N 29°60' W 090°25'15 0.4
2015-Jun-29 14:32N 29°57' W 090°09'3 3.1
2015-Jun-29 13:33N 29°55' W 090°06'4 3.8
2015-Jun-29 12:29N 29°58' W 090°03'4 4.2
2015-Jun-29 11:33N 29°56' W 089°59'0 0.2
2015-Jun-29 10:28N 29°56' W 089°59'0 0.0
2015-Jun-29 09:31N 29°56' W 089°59'4 0.2
2015-Jun-28 10:30N 29°57' W 090°02'5 5.2
2015-Jun-28 09:32N 29°55' W 090°07'1 0.0
2015-Jun-26 07:28N 29°55' W 090°06'3 3.6
2015-Jun-26 06:33N 29°57' W 090°03'0 0.1
2015-Jun-26 05:31N 29°57' W 090°03'2 2.0
2015-Jun-26 04:33N 29°57' W 090°01'5 4.3
2015-Jun-26 03:22N 29°55' W 089°56'3 2.2
2015-Jun-26 02:06N 29°53' W 089°57'4 4.3
2015-Jun-26 01:12N 29°50' W 089°60'57 1.6
2015-Jun-24 13:05N 30°10' W 091°01'0 0.0
2015-Jun-24 12:33N 30°10' W 091°01'  
Track history (hours):
 
Tides and Currents Weather Stations Pressure Air Temp Water Temp Dewpoint Dewpoint Depression Visibility Wind Speed Wind Dir Waves Ship Positions

F.r. Bigelow

Owner: INGRAM BARGE COMPANY, Nashville, TN. More information available from US FCC via Universal Licensing System and Coast Guard Vessel Documentation Center.

Last reported at 2015-Jul-04 12:21 UTC. Time now 2015-Jul-05 07:48 UTC.
Position N 29°55' W 090°12'.

Length 46 m; draft 2.7 m.

Type: Tow > 200 m length. MMSI: 366953890.

Date/timePositionNaut miles runAvg speedWind from/ knotsBaromVisibWave heightAir tempDewpointWater temp
2015-Jul-04 12:21N 29°55' W 090°12'3 3.3
2015-Jul-04 11:21N 29°57' W 090°08'3 3.2
2015-Jul-04 10:19N 29°55' W 090°05'2 2.2
2015-Jul-04 09:18N 29°57' W 090°03'0 0.0
2015-Jul-04 08:33N 29°57' W 090°03'0 0.0
2015-Jul-04 07:26N 29°57' W 090°03'0 0.0
2015-Jul-04 06:33N 29°57' W 090°03'0 0.0
2015-Jul-04 05:32N 29°57' W 090°03'0 0.0
2015-Jul-04 04:28N 29°57' W 090°03'0 0.0
2015-Jul-04 03:32N 29°57' W 090°03'1 1.1
2015-Jul-04 02:33N 29°57' W 090°03'4 3.5
2015-Jul-04 01:33N 29°56' W 089°59'4 1.9
2015-Jul-03 23:14N 29°51' W 089°59'4 5.0
2015-Jul-03 22:25N 29°48' W 090°00'9 0.3
2015-Jul-02 18:17N 29°56' W 090°03'0 0.1
2015-Jul-02 17:29N 29°56' W 090°03'0 0.2
2015-Jul-02 15:25N 29°57' W 090°03'0 0.0
2015-Jul-02 14:17N 29°57' W 090°03'0 0.3
2015-Jul-02 13:21N 29°57' W 090°03'2 2.1
2015-Jul-02 12:32N 29°57' W 090°01'3 2.8
2015-Jul-02 11:28N 29°56' W 089°58'3 1.7
2015-Jul-02 09:23N 29°52' W 089°57'3 0.1
2015-Jul-01 08:33N 29°55' W 089°55'7 6.9
2015-Jul-01 07:28N 29°57' W 090°03'19 3.1
2015-Jul-01 01:12N 29°60' W 090°25'15 0.4
2015-Jun-29 14:32N 29°57' W 090°09'3 3.1
2015-Jun-29 13:33N 29°55' W 090°06'4 3.8
2015-Jun-29 12:29N 29°58' W 090°03'4 4.2
2015-Jun-29 11:33N 29°56' W 089°59'0 0.2
2015-Jun-29 10:28N 29°56' W 089°59'0 0.0
2015-Jun-29 09:31N 29°56' W 089°59'4 0.2
2015-Jun-28 10:30N 29°57' W 090°02'5 5.2
2015-Jun-28 09:32N 29°55' W 090°07'1 0.0
2015-Jun-26 07:28N 29°55' W 090°06'3 3.6
2015-Jun-26 06:33N 29°57' W 090°03'0 0.1
2015-Jun-26 05:31N 29°57' W 090°03'2 2.0
2015-Jun-26 04:33N 29°57' W 090°01'5 4.3
2015-Jun-26 03:22N 29°55' W 089°56'3 2.2
2015-Jun-26 02:06N 29°53' W 089°57'4 4.3
2015-Jun-26 01:12N 29°50' W 089°60'57 1.6
2015-Jun-24 13:05N 30°10' W 091°01'0 0.0
2015-Jun-24 12:33N 30°10' W 091°01'  

Dump ship's entire track history